createdAt,value
2019-06-10T00:00:50.966Z,92.70
2019-06-10T00:03:21.029Z,92.80
2019-06-10T00:06:00.870Z,92.90
2019-06-10T00:08:30.865Z,92.90
2019-06-10T00:11:04.204Z,93.00
2019-06-10T00:13:36.763Z,93.40
2019-06-10T00:16:06.733Z,93.50
2019-06-10T00:19:06.800Z,93.70
2019-06-10T00:21:35.015Z,93.80
2019-06-10T00:24:40.954Z,94.00
2019-06-10T00:28:12.298Z,94.10
2019-06-10T00:30:46.810Z,94.30
2019-06-10T00:34:06.215Z,94.60
2019-06-10T00:43:44.155Z,94.80
2019-06-10T00:47:08.263Z,95.00
2019-06-10T00:51:38.416Z,95.00
2019-06-10T00:53:21.277Z,95.00
2019-06-10T00:55:51.544Z,95.10
2019-06-10T00:58:21.608Z,95.50
2019-06-10T01:00:51.781Z,95.30
2019-06-10T01:03:21.174Z,95.40
2019-06-10T01:05:50.992Z,95.50
2019-06-10T01:08:21.486Z,95.60
2019-06-10T01:10:52.328Z,95.60
2019-06-10T01:13:21.450Z,95.80
2019-06-10T01:19:25.347Z,96.00
2019-06-10T01:22:32.780Z,96.10
2019-06-10T01:25:03.563Z,96.10
2019-06-10T01:28:54.082Z,96.30
2019-06-10T01:31:24.344Z,96.50
2019-06-10T01:33:53.927Z,96.70
2019-06-10T01:36:23.228Z,96.80
2019-06-10T01:38:52.555Z,96.90
2019-06-10T01:41:21.827Z,97.10
2019-06-10T01:44:03.410Z,97.30
2019-06-10T01:46:33.160Z,97.40
2019-06-10T01:49:07.477Z,97.40
2019-06-10T01:51:42.862Z,97.50
2019-06-10T01:54:18.441Z,97.70
2019-06-10T01:56:50.864Z,97.80
2019-06-10T01:59:21.940Z,97.80
2019-06-10T02:02:00.965Z,98.00
2019-06-10T02:04:32.094Z,98.10
2019-06-10T02:07:02.830Z,98.20
2019-06-10T02:09:32.078Z,98.30
2019-06-10T02:12:02.200Z,98.40
2019-06-10T02:14:31.919Z,98.50
2019-06-10T02:17:01.423Z,98.80
2019-06-10T02:19:31.069Z,98.60
2019-06-10T02:22:01.175Z,98.80
2019-06-10T02:24:31.512Z,98.80
2019-06-10T02:27:01.147Z,98.90
2019-06-10T02:29:30.890Z,98.90
2019-06-10T02:32:04.519Z,99.00
2019-06-10T02:34:36.624Z,99.00
2019-06-10T02:37:04.709Z,99.10
2019-06-10T02:39:38.709Z,99.10
2019-06-10T02:42:17.970Z,99.10
2019-06-10T02:44:44.854Z,99.20
2019-06-10T02:47:18.260Z,99.20
2019-06-10T02:49:57.476Z,99.20
2019-06-10T02:52:22.390Z,99.30
2019-06-10T02:54:53.517Z,99.20
2019-06-10T02:57:28.488Z,99.20
2019-06-10T02:59:54.384Z,99.20
2019-06-10T03:02:28.850Z,99.20
2019-06-10T03:04:53.809Z,99.30
2019-06-10T03:07:28.174Z,99.60
2019-06-10T03:09:53.993Z,99.60
2019-06-10T03:12:25.774Z,99.60
2019-06-10T03:14:54.304Z,99.70
2019-06-10T03:17:25.975Z,99.60
2019-06-10T03:19:55.474Z,99.90
2019-06-10T03:22:25.868Z,99.60
2019-06-10T03:24:55.209Z,99.50
2019-06-10T03:27:26.281Z,99.50
2019-06-10T03:29:55.370Z,99.50
2019-06-10T03:32:32.325Z,99.50
2019-06-10T03:34:56.015Z,99.50
2019-06-10T03:37:27.741Z,99.50
2019-06-10T03:39:56.856Z,99.50
2019-06-10T03:42:27.798Z,99.50
2019-06-10T03:44:56.892Z,99.50
2019-06-10T03:47:28.850Z,99.50
2019-06-10T03:49:58.285Z,99.60
2019-06-10T03:52:28.551Z,99.60
2019-06-10T03:54:57.966Z,99.90
2019-06-10T03:57:28.622Z,99.70
2019-06-10T03:59:58.128Z,99.70
2019-06-10T04:02:28.400Z,99.70
2019-06-10T04:04:57.642Z,99.80
2019-06-10T04:07:30.652Z,99.80
2019-06-10T04:09:57.550Z,99.90
2019-06-10T04:12:27.795Z,99.90
2019-06-10T04:14:57.789Z,99.90
2019-06-10T04:17:28.590Z,99.90
2019-06-10T04:20:09.336Z,99.90
2019-06-10T04:22:32.806Z,99.90
2019-06-10T04:25:02.977Z,99.90
2019-06-10T04:27:32.945Z,99.90
2019-06-10T04:30:03.347Z,99.90
2019-06-10T04:32:32.870Z,99.90
2019-06-10T04:35:02.252Z,99.90
2019-06-10T04:37:32.536Z,99.90
2019-06-10T04:40:02.901Z,99.90
2019-06-10T04:42:33.012Z,99.90
2019-06-10T04:45:03.236Z,99.90
2019-06-10T04:47:33.297Z,99.90
2019-06-10T04:50:03.097Z,99.90
2019-06-10T04:52:33.922Z,99.90
2019-06-10T04:55:03.335Z,99.90
2019-06-10T04:57:32.907Z,99.90
2019-06-10T05:00:04.094Z,99.90
2019-06-10T05:02:33.169Z,99.90
2019-06-10T05:05:03.052Z,99.90
2019-06-10T05:07:36.694Z,99.90
2019-06-10T05:10:03.390Z,99.90
2019-06-10T05:12:32.863Z,99.90
2019-06-10T05:15:03.447Z,99.90
2019-06-10T05:17:34.262Z,99.90
2019-06-10T05:20:04.445Z,99.90
2019-06-10T05:22:33.693Z,99.90
2019-06-10T05:25:02.798Z,99.90
2019-06-10T05:27:33.043Z,99.90
2019-06-10T05:30:04.175Z,99.90
2019-06-10T05:32:33.640Z,99.90
2019-06-10T05:35:33.947Z,99.90
2019-06-10T05:38:03.265Z,99.90
2019-06-10T05:40:33.742Z,99.90
2019-06-10T05:43:02.990Z,99.90
2019-06-10T05:45:34.900Z,99.90
2019-06-10T05:48:04.134Z,99.90
2019-06-10T05:51:02.187Z,99.90
2019-06-10T05:53:29.180Z,99.90
2019-06-10T05:55:59.096Z,99.90
2019-06-10T05:58:29.290Z,99.90
2019-06-10T06:00:58.523Z,99.90
2019-06-10T06:03:27.821Z,99.90
2019-06-10T06:05:56.854Z,99.90
2019-06-10T06:08:27.056Z,99.90
2019-06-10T06:10:56.415Z,99.90
2019-06-10T06:13:27.442Z,99.90
2019-06-10T06:15:56.605Z,99.90
2019-06-10T06:18:26.409Z,99.90
2019-06-10T06:20:55.571Z,99.90
2019-06-10T06:23:24.851Z,99.90
2019-06-10T06:25:55.306Z,99.90
2019-06-10T06:28:25.800Z,99.90
2019-06-10T06:30:54.951Z,99.90
2019-06-10T06:33:27.326Z,99.90
2019-06-10T06:35:56.321Z,99.90
2019-06-10T06:38:26.883Z,99.90
2019-06-10T06:40:57.576Z,99.90
2019-06-10T06:43:31.910Z,99.90
2019-06-10T06:45:59.143Z,99.90
2019-06-10T06:48:38.378Z,99.90
2019-06-10T06:51:09.270Z,99.90
2019-06-10T06:53:50.445Z,99.90
2019-06-10T06:56:12.890Z,99.90
2019-06-10T06:58:44.620Z,99.90
2019-06-10T07:01:17.152Z,99.90
2019-06-10T07:03:47.579Z,99.90
2019-06-10T07:06:22.777Z,99.90
2019-06-10T07:09:04.197Z,99.90
2019-06-10T07:11:25.725Z,99.90
2019-06-10T07:13:55.850Z,99.90
2019-06-10T07:16:24.850Z,99.90
2019-06-10T07:18:55.671Z,99.80
2019-06-10T07:21:24.645Z,99.90
2019-06-10T07:23:53.637Z,99.90
2019-06-10T07:26:22.719Z,99.70
2019-06-10T07:28:53.773Z,99.60
2019-06-10T07:31:27.468Z,99.40
2019-06-10T07:33:53.287Z,99.30
2019-06-10T07:36:23.725Z,99.20
2019-06-10T07:38:54.159Z,98.90
2019-06-10T07:41:23.367Z,98.70
2019-06-10T07:43:52.957Z,98.90
2019-06-10T07:46:23.009Z,98.80
2019-06-10T07:48:56.247Z,98.60
2019-06-10T07:51:23.432Z,98.60
2019-06-10T07:53:53.283Z,98.60
2019-06-10T07:56:23.468Z,98.30
2019-06-10T07:58:53.013Z,98.20
2019-06-10T08:01:22.978Z,97.80
2019-06-10T08:03:52.864Z,97.50
2019-06-10T08:06:23.157Z,97.60
2019-06-10T08:08:53.428Z,97.60
2019-06-10T08:11:23.048Z,97.50
2019-06-10T08:13:53.836Z,97.20
2019-06-10T08:16:23.625Z,96.80
2019-06-10T08:20:05.971Z,96.90
2019-06-10T08:22:39.989Z,97.00
2019-06-10T08:25:53.623Z,96.80
2019-06-10T08:28:18.699Z,97.00
2019-06-10T08:30:48.287Z,97.00
2019-06-10T08:33:17.381Z,96.80
2019-06-10T08:35:56.435Z,96.30
2019-06-10T08:38:17.160Z,96.40
2019-06-10T08:40:48.360Z,96.40
2019-06-10T08:43:16.919Z,96.40
2019-06-10T08:45:47.486Z,96.30
2019-06-10T08:48:17.051Z,96.30
2019-06-10T08:50:48.740Z,96.60
2019-06-10T08:53:18.298Z,96.50
2019-06-10T08:55:50.132Z,96.70
2019-06-10T08:58:18.903Z,96.50
2019-06-10T09:00:49.503Z,96.50
2019-06-10T09:03:18.624Z,96.40
2019-06-10T09:05:49.863Z,96.50
2019-06-10T09:08:23.393Z,96.50
2019-06-10T09:10:54.269Z,96.30
2019-06-10T09:13:24.395Z,96.40
2019-06-10T09:16:10.064Z,96.30
2019-06-10T09:18:25.915Z,96.00
2019-06-10T09:20:56.209Z,96.00
2019-06-10T09:23:28.176Z,96.00
2019-06-10T09:25:57.889Z,95.70
2019-06-10T09:28:29.921Z,95.50
2019-06-10T09:30:59.762Z,95.50
2019-06-10T09:33:46.632Z,95.60
2019-06-10T09:36:13.214Z,95.70
2019-06-10T09:38:45.760Z,95.60
2019-06-10T09:41:14.144Z,95.60
2019-06-10T09:43:48.961Z,95.60
2019-06-10T09:46:24.079Z,95.60
2019-06-10T09:48:52.815Z,95.60
2019-06-10T09:51:22.991Z,95.60
2019-06-10T09:54:03.620Z,95.70
2019-06-10T09:56:33.251Z,95.80
2019-06-10T09:59:03.741Z,96.00
2019-06-10T10:01:32.955Z,96.00
2019-06-10T10:04:05.008Z,96.20
2019-06-10T10:06:38.206Z,96.10
2019-06-10T10:09:09.107Z,96.20
2019-06-10T10:11:39.334Z,96.40
2019-06-10T10:14:15.115Z,96.40
2019-06-10T10:16:46.721Z,96.50
2019-06-10T10:19:13.188Z,96.70
2019-06-10T10:22:10.962Z,96.80
2019-06-10T10:24:56.993Z,97.00
2019-06-10T10:27:27.375Z,97.30
2019-06-10T10:29:57.360Z,97.90
2019-06-10T10:32:29.105Z,98.80
2019-06-10T10:35:03.702Z,98.80
2019-06-10T10:37:32.757Z,98.20
2019-06-10T10:40:03.203Z,98.20
2019-06-10T10:42:42.630Z,98.20
2019-06-10T10:45:05.446Z,98.30
2019-06-10T10:47:34.529Z,98.20
2019-06-10T10:50:07.868Z,98.20
2019-06-10T10:52:37.535Z,98.20
2019-06-10T10:55:07.252Z,98.70
2019-06-10T10:57:41.162Z,98.40
2019-06-10T11:00:12.403Z,98.50
2019-06-10T11:02:44.564Z,98.30
2019-06-10T11:05:15.188Z,98.30
2019-06-10T11:07:45.899Z,98.20
2019-06-10T11:10:17.370Z,98.40
2019-06-10T11:12:53.702Z,98.20
2019-06-10T11:15:24.223Z,98.10
2019-06-10T11:17:56.348Z,98.00
2019-06-10T11:20:25.551Z,98.00
2019-06-10T11:22:55.831Z,98.20
2019-06-10T11:25:26.614Z,98.30
2019-06-10T11:27:56.100Z,98.30
2019-06-10T11:30:26.570Z,98.10
2019-06-10T11:32:58.336Z,98.20
2019-06-10T11:35:28.372Z,98.40
2019-06-10T11:37:58.213Z,98.50
2019-06-10T11:40:27.401Z,98.50
2019-06-10T11:42:59.582Z,98.50
2019-06-10T11:45:27.681Z,98.50
2019-06-10T11:48:03.910Z,98.50
2019-06-10T11:50:33.514Z,98.40
2019-06-10T11:53:04.207Z,98.40
2019-06-10T11:55:33.402Z,98.30
2019-06-10T11:58:04.191Z,98.30
2019-06-10T12:00:34.917Z,98.10
2019-06-10T12:03:04.124Z,98.10
2019-06-10T12:05:33.432Z,98.10
2019-06-10T12:08:02.930Z,97.90
2019-06-10T12:10:33.054Z,97.90
2019-06-10T12:13:07.172Z,98.00
2019-06-10T12:16:19.839Z,97.90
2019-06-10T12:18:08.797Z,97.90
2019-06-10T12:20:37.431Z,97.80
2019-06-10T12:23:09.238Z,97.70
2019-06-10T12:25:39.886Z,97.50
2019-06-10T12:28:08.989Z,97.20
2019-06-10T12:30:42.190Z,97.30
2019-06-10T12:33:20.724Z,97.40
2019-06-10T12:35:43.373Z,97.00
2019-06-10T12:38:13.797Z,96.80
2019-06-10T12:40:43.897Z,96.40
2019-06-10T12:43:14.441Z,95.60
2019-06-10T12:45:43.935Z,95.20
2019-06-10T12:48:16.723Z,95.00
2019-06-10T12:50:45.784Z,94.30
2019-06-10T12:53:18.565Z,93.60
2019-06-10T12:55:48.403Z,92.80
2019-06-10T12:58:17.829Z,93.00
2019-06-10T13:00:47.917Z,92.60
2019-06-10T13:03:18.446Z,92.30
2019-06-10T13:05:49.350Z,91.80
2019-06-10T13:08:27.163Z,91.30
2019-06-10T13:10:56.893Z,90.50
2019-06-10T13:13:27.899Z,90.20
2019-06-10T13:15:58.190Z,90.30
2019-06-10T13:18:29.226Z,90.20
2019-06-10T13:21:02.549Z,90.20
2019-06-10T13:23:35.289Z,90.30
2019-06-10T13:28:52.624Z,91.20
2019-06-10T13:32:03.234Z,91.90
2019-06-10T13:37:29.421Z,92.30
2019-06-10T13:39:59.455Z,92.10
2019-06-10T13:42:28.493Z,91.80
2019-06-10T13:44:57.799Z,91.60
2019-06-10T13:47:26.860Z,91.40
2019-06-10T13:49:56.002Z,91.00
2019-06-10T13:52:25.440Z,90.80
2019-06-10T13:54:54.470Z,90.50
2019-06-10T13:57:23.495Z,90.40
2019-06-10T13:59:52.460Z,90.10
2019-06-10T14:02:35.399Z,90.10
2019-06-10T14:05:57.608Z,89.90
2019-06-10T14:08:24.316Z,89.10
2019-06-10T14:10:55.055Z,89.40
2019-06-10T14:13:24.251Z,89.20
2019-06-10T14:15:54.460Z,89.50
2019-06-10T14:18:24.907Z,89.60
2019-06-10T14:21:07.911Z,89.80
2019-06-10T14:23:36.322Z,90.00
2019-06-10T14:26:10.056Z,90.00
2019-06-10T14:28:43.526Z,90.00
2019-06-10T14:31:33.725Z,89.90
2019-06-10T14:33:42.938Z,90.00
2019-06-10T14:36:22.371Z,90.10
2019-06-10T14:38:51.939Z,90.40
2019-06-10T14:41:25.646Z,90.50
2019-06-10T14:43:54.139Z,90.80
2019-06-10T14:46:23.232Z,90.90
2019-06-10T14:48:53.307Z,91.00
2019-06-10T14:51:23.347Z,91.00
2019-06-10T14:53:59.736Z,90.90
2019-06-10T14:56:33.302Z,90.90
2019-06-10T14:59:02.546Z,90.90
2019-06-10T15:01:32.165Z,91.10
2019-06-10T15:04:02.989Z,91.20
2019-06-10T15:06:33.817Z,91.30
2019-06-10T15:09:07.325Z,91.10
2019-06-10T15:14:35.205Z,90.30
2019-06-10T15:17:06.573Z,90.20
2019-06-10T15:19:39.765Z,90.00
2019-06-10T15:22:09.519Z,89.50
2019-06-10T15:24:42.784Z,89.50
2019-06-10T15:27:23.350Z,89.50
2019-06-10T15:29:49.452Z,89.20
2019-06-10T15:32:33.267Z,89.40
2019-06-10T15:35:25.909Z,89.70
2019-06-10T15:37:54.933Z,89.90
2019-06-10T15:40:24.123Z,90.00
2019-06-10T15:42:54.811Z,90.10
2019-06-10T15:45:24.434Z,90.30
2019-06-10T15:47:53.466Z,90.50
2019-06-10T15:50:27.470Z,90.60
2019-06-10T15:53:45.179Z,90.80
2019-06-10T15:56:25.075Z,90.90
2019-06-10T15:58:44.894Z,90.90
2019-06-10T16:01:35.047Z,91.20
2019-06-10T16:04:05.986Z,91.00
2019-06-10T16:06:36.574Z,90.90
2019-06-10T16:09:08.620Z,90.90
2019-06-10T16:11:40.287Z,90.80
2019-06-10T16:14:16.757Z,90.80
2019-06-10T16:16:52.609Z,90.80
2019-06-10T16:19:21.275Z,90.90
2019-06-10T16:21:52.480Z,90.90
2019-06-10T16:24:26.926Z,90.80
2019-06-10T16:26:52.646Z,90.50
2019-06-10T16:29:24.202Z,90.30
2019-06-10T16:31:52.944Z,89.00
2019-06-10T16:34:25.020Z,86.40
2019-06-10T16:37:02.187Z,85.50
2019-06-10T16:39:32.567Z,84.50
2019-06-10T16:42:03.037Z,85.10
2019-06-10T16:44:33.164Z,83.90
2019-06-10T16:47:03.228Z,83.50
2019-06-10T16:49:32.944Z,83.00
2019-06-10T16:52:02.853Z,82.90
2019-06-10T16:54:33.011Z,82.80
2019-06-10T16:57:03.954Z,82.50
2019-06-10T16:59:35.567Z,82.20
2019-06-10T17:02:05.784Z,81.80
2019-06-10T17:04:35.731Z,81.30
2019-06-10T17:07:04.891Z,81.00
2019-06-10T17:09:33.975Z,80.80
2019-06-10T17:12:04.248Z,80.60
2019-06-10T17:14:34.431Z,80.20
2019-06-10T17:17:03.950Z,80.30
2019-06-10T17:19:33.502Z,80.60
2019-06-10T17:22:02.930Z,80.90
2019-06-10T17:24:33.846Z,81.60
2019-06-10T17:27:03.773Z,81.80
2019-06-10T17:29:47.329Z,81.60
2019-06-10T17:32:17.695Z,81.80
2019-06-10T17:34:46.703Z,82.00
2019-06-10T17:37:16.514Z,82.50
2019-06-10T17:39:45.599Z,82.90
2019-06-10T17:42:15.956Z,83.30
2019-06-10T17:44:45.346Z,83.80
2019-06-10T17:47:14.750Z,84.40
2019-06-10T17:49:44.986Z,84.30
2019-06-10T17:52:13.996Z,84.50
2019-06-10T17:54:43.064Z,84.90
2019-06-10T17:57:12.784Z,85.50
2019-06-10T17:59:42.138Z,86.00
2019-06-10T18:02:12.345Z,86.50
2019-06-10T18:04:42.485Z,87.00
2019-06-10T18:07:13.027Z,87.70
2019-06-10T18:09:42.208Z,88.20
2019-06-10T18:12:12.999Z,88.50
2019-06-10T18:15:24.030Z,88.80
2019-06-10T18:21:03.804Z,89.10
2019-06-10T18:23:36.756Z,90.10
2019-06-10T18:29:02.018Z,90.20
2019-06-10T18:31:25.642Z,90.20
2019-06-10T18:33:54.633Z,90.30
2019-06-10T18:36:24.959Z,90.40
2019-06-10T18:38:55.272Z,90.70
2019-06-10T18:41:24.341Z,91.00
2019-06-10T18:43:53.401Z,91.20
2019-06-10T18:46:23.188Z,91.40
2019-06-10T18:48:53.706Z,91.70
2019-06-10T18:51:23.056Z,92.00
2019-06-10T18:53:52.338Z,92.20
2019-06-10T18:56:23.215Z,92.20
2019-06-10T18:58:53.058Z,92.50
2019-06-10T19:01:22.678Z,92.60
2019-06-10T19:03:52.130Z,92.90
2019-06-10T19:06:33.327Z,93.00
2019-06-10T19:09:17.598Z,93.20
2019-06-10T19:11:46.583Z,93.40
2019-06-10T19:14:15.738Z,93.40
2019-06-10T19:16:46.605Z,93.60
2019-06-10T19:19:15.569Z,93.80
2019-06-10T19:21:59.145Z,94.10
2019-06-10T19:24:17.519Z,94.20
2019-06-10T19:26:48.824Z,94.40
2019-06-10T19:29:33.212Z,94.50
2019-06-10T19:31:52.468Z,94.60
2019-06-10T19:34:33.881Z,94.80
2019-06-10T19:37:03.015Z,95.00
2019-06-10T19:39:35.059Z,95.10
2019-06-10T19:42:02.917Z,95.50
2019-06-10T19:44:32.775Z,95.70
2019-06-10T19:47:02.844Z,95.90
2019-06-10T19:49:34.175Z,96.20
2019-06-10T19:52:08.292Z,96.30
2019-06-10T19:54:43.504Z,96.70
2019-06-10T19:57:13.310Z,96.90
2019-06-10T20:00:03.826Z,97.10
2019-06-10T20:02:17.761Z,97.30
2019-06-10T20:04:49.663Z,97.70
2019-06-10T20:07:18.760Z,97.80
2019-06-10T20:12:38.941Z,98.40
2019-06-10T20:15:10.223Z,98.50
2019-06-10T20:17:39.739Z,98.50
2019-06-10T20:20:09.559Z,98.50
2019-06-10T20:22:45.159Z,98.70
2019-06-10T20:25:14.462Z,99.00
2019-06-10T20:27:45.404Z,99.20
2019-06-10T20:30:24.085Z,99.40
2019-06-10T20:32:51.842Z,99.70
2019-06-10T20:35:23.628Z,99.60
2019-06-10T20:38:05.040Z,96.20
2019-06-10T20:40:35.521Z,94.70
2019-06-10T20:45:37.637Z,93.60
2019-06-10T20:48:15.996Z,94.80
2019-06-10T20:50:47.370Z,95.60
2019-06-10T20:57:22.602Z,98.00
2019-06-10T20:59:52.838Z,99.30
2019-06-10T21:05:15.747Z,99.90
2019-06-10T21:07:46.857Z,99.90
2019-06-10T21:10:22.249Z,99.90
2019-06-10T21:13:02.993Z,99.90
2019-06-10T21:16:15.159Z,99.90
2019-06-10T21:24:26.144Z,99.90
2019-06-10T21:27:23.910Z,99.90
2019-06-10T21:35:42.460Z,99.90
2019-06-10T21:38:12.295Z,99.90
2019-06-10T21:40:42.507Z,99.90
2019-06-10T21:48:24.616Z,99.90
2019-06-10T21:51:13.189Z,99.90
2019-06-10T21:53:44.629Z,99.90
2019-06-10T21:56:13.979Z,99.90
2019-06-10T21:58:46.802Z,99.90
2019-06-10T22:01:17.187Z,99.90
2019-06-10T22:04:00.878Z,99.90
2019-06-10T22:06:28.409Z,99.90
2019-06-10T22:08:57.772Z,99.90
2019-06-10T22:11:27.146Z,99.90
2019-06-10T22:13:56.795Z,99.90
2019-06-10T22:16:26.114Z,99.90
2019-06-10T22:18:55.371Z,99.90
2019-06-10T22:21:24.665Z,99.90
2019-06-10T22:23:56.890Z,99.90
2019-06-10T22:26:44.775Z,99.90
2019-06-10T22:29:13.956Z,99.90
2019-06-10T22:31:47.110Z,99.90
2019-06-10T22:34:18.550Z,99.90
2019-06-10T22:36:55.664Z,99.90
2019-06-10T22:39:25.506Z,99.90
2019-06-10T22:42:18.937Z,99.90
2019-06-10T22:44:49.422Z,99.90
2019-06-10T22:47:22.351Z,99.90
2019-06-10T22:49:54.459Z,99.90
2019-06-10T22:52:25.370Z,99.90
2019-06-10T22:54:58.325Z,99.90
2019-06-10T22:57:27.325Z,99.90
2019-06-10T22:59:59.434Z,99.90
2019-06-10T23:02:28.778Z,99.90
2019-06-10T23:05:05.013Z,99.90
2019-06-10T23:07:32.972Z,99.90
2019-06-10T23:10:03.576Z,99.90
2019-06-10T23:12:32.850Z,99.90
2019-06-10T23:15:02.843Z,99.90
2019-06-10T23:17:32.219Z,99.90
2019-06-10T23:20:03.187Z,99.90
2019-06-10T23:22:32.414Z,99.90
2019-06-10T23:25:02.869Z,99.90
2019-06-10T23:27:32.873Z,99.90
2019-06-10T23:30:10.788Z,99.90
2019-06-10T23:32:34.438Z,99.90
2019-06-10T23:35:03.850Z,99.90
2019-06-10T23:37:33.265Z,99.90
2019-06-10T23:40:04.280Z,99.90
2019-06-10T23:42:36.030Z,99.90
2019-06-10T23:45:06.199Z,99.90
2019-06-10T23:47:35.467Z,99.90
2019-06-10T23:50:05.382Z,99.90
2019-06-10T23:52:34.686Z,99.90
2019-06-10T23:55:04.602Z,99.90
2019-06-10T23:57:33.982Z,99.90
